createdAt,value
2022-12-03T00:00:47.052Z,0
2022-12-03T00:01:46.964Z,0
2022-12-03T00:02:47.544Z,0
2022-12-03T00:03:48.515Z,0
2022-12-03T00:04:48.498Z,0
2022-12-03T00:06:00.180Z,0
2022-12-03T00:06:51.231Z,0
2022-12-03T00:07:51.845Z,0
2022-12-03T00:08:51.855Z,0
2022-12-03T00:09:52.736Z,0
2022-12-03T00:10:53.363Z,0
2022-12-03T00:11:54.279Z,0
2022-12-03T00:12:54.310Z,0
2022-12-03T00:13:55.794Z,0
2022-12-03T00:15:01.795Z,0
2022-12-03T00:15:57.288Z,0
2022-12-03T00:16:57.231Z,0
2022-12-03T00:17:58.382Z,0
2022-12-03T00:18:58.307Z,0
2022-12-03T00:19:58.924Z,0
2022-12-03T00:21:00.418Z,0
2022-12-03T00:22:00.642Z,0
2022-12-03T00:23:00.924Z,0
2022-12-03T00:24:01.577Z,0
2022-12-03T00:25:03.310Z,0
2022-12-03T00:26:02.645Z,0
2022-12-03T00:27:03.886Z,0
2022-12-03T00:28:04.104Z,0
2022-12-03T00:29:04.298Z,0
2022-12-03T00:30:03.931Z,0
2022-12-03T00:31:05.003Z,0
2022-12-03T00:32:04.975Z,0
2022-12-03T00:33:05.101Z,0
2022-12-03T00:34:05.998Z,0
2022-12-03T00:35:07.156Z,0
2022-12-03T00:36:07.654Z,0
2022-12-03T00:37:07.965Z,0
2022-12-03T00:38:08.153Z,0
2022-12-03T00:39:08.812Z,0
2022-12-03T00:40:10.284Z,0
2022-12-03T00:41:10.470Z,0
2022-12-03T00:42:11.386Z,0
2022-12-03T00:43:12.406Z,0
2022-12-03T00:44:12.310Z,0
2022-12-03T00:45:12.957Z,0
2022-12-03T00:46:18.241Z,0
2022-12-03T00:47:15.969Z,0
2022-12-03T00:48:15.162Z,0
2022-12-03T00:49:14.980Z,0
2022-12-03T00:50:16.191Z,0
2022-12-03T00:51:16.695Z,0
2022-12-03T00:52:16.321Z,0
2022-12-03T00:53:17.644Z,0
2022-12-03T00:54:17.753Z,0
2022-12-03T00:55:17.966Z,0
2022-12-03T00:56:18.217Z,0
2022-12-03T00:57:18.111Z,0
2022-12-03T00:58:19.348Z,0
2022-12-03T00:59:19.257Z,0
2022-12-03T01:00:20.168Z,0
2022-12-03T01:01:21.507Z,0
2022-12-03T01:02:22.313Z,0
2022-12-03T01:03:21.759Z,0
2022-12-03T01:04:22.642Z,0
2022-12-03T01:05:24.409Z,0
2022-12-03T01:06:24.929Z,0
2022-12-03T01:07:24.872Z,0
2022-12-03T01:08:26.178Z,0
2022-12-03T01:09:26.107Z,0
2022-12-03T01:10:27.017Z,0
2022-12-03T01:11:27.988Z,0
2022-12-03T01:12:28.174Z,0
2022-12-03T01:13:28.792Z,0
2022-12-03T01:14:28.714Z,0
2022-12-03T01:15:28.328Z,0
2022-12-03T01:16:29.188Z,0
2022-12-03T01:17:30.122Z,0
2022-12-03T01:18:30.730Z,0
2022-12-03T01:19:31.352Z,0
2022-12-03T01:20:32.539Z,0
2022-12-03T01:21:32.465Z,0
2022-12-03T01:22:33.108Z,0
2022-12-03T01:23:33.884Z,0
2022-12-03T01:24:34.101Z,0
2022-12-03T01:25:33.982Z,0
2022-12-03T01:26:34.913Z,0
2022-12-03T01:27:35.536Z,0
2022-12-03T01:28:36.771Z,0
2022-12-03T01:29:36.650Z,0
2022-12-03T01:30:38.147Z,0
2022-12-03T01:31:38.123Z,0
2022-12-03T01:32:38.833Z,0
2022-12-03T01:33:39.857Z,0
2022-12-03T01:34:39.743Z,0
2022-12-03T01:35:40.654Z,0
2022-12-03T01:36:40.907Z,0
2022-12-03T01:37:41.127Z,0
2022-12-03T01:38:41.614Z,0
2022-12-03T01:39:41.544Z,0
2022-12-03T01:40:41.156Z,0
2022-12-03T01:41:41.787Z,0
2022-12-03T01:42:42.395Z,0
2022-12-03T01:43:44.002Z,0
2022-12-03T01:44:43.626Z,0
2022-12-03T01:45:44.859Z,0
2022-12-03T01:46:45.483Z,0
2022-12-03T01:47:44.546Z,0
2022-12-03T01:48:46.468Z,0
2022-12-03T01:49:47.756Z,0
2022-12-03T01:50:47.947Z,0
2022-12-03T01:51:48.163Z,0
2022-12-03T01:52:48.529Z,0
2022-12-03T01:53:49.826Z,0
2022-12-03T01:54:49.787Z,0
2022-12-03T01:55:54.186Z,0
2022-12-03T01:56:51.068Z,0
2022-12-03T01:57:52.259Z,0
2022-12-03T01:58:52.483Z,0
2022-12-03T01:59:52.378Z,0
2022-12-03T02:00:53.296Z,0
2022-12-03T02:01:54.847Z,0
2022-12-03T02:02:54.791Z,0
2022-12-03T02:03:56.190Z,0
2022-12-03T02:04:56.745Z,0
2022-12-03T02:05:57.012Z,0
2022-12-03T02:06:57.509Z,0
2022-12-03T02:07:57.951Z,0
2022-12-03T02:08:57.925Z,0
2022-12-03T02:09:58.885Z,0
2022-12-03T02:10:59.064Z,0
2022-12-03T02:11:59.287Z,0
2022-12-03T02:12:59.474Z,0
2022-12-03T02:14:00.499Z,0
2022-12-03T02:15:01.555Z,0
2022-12-03T02:16:02.138Z,0
2022-12-03T02:17:02.472Z,0
2022-12-03T02:18:02.692Z,0
2022-12-03T02:19:02.872Z,0
2022-12-03T02:20:03.072Z,0
2022-12-03T02:21:03.707Z,0
2022-12-03T02:22:04.365Z,0
2022-12-03T02:23:05.292Z,0
2022-12-03T02:24:05.999Z,0
2022-12-03T02:25:07.456Z,0
2022-12-03T02:26:07.930Z,0
2022-12-03T02:27:07.824Z,0
2022-12-03T02:28:08.465Z,0
2022-12-03T02:29:09.678Z,0
2022-12-03T02:30:09.583Z,0
2022-12-03T02:31:11.084Z,0
2022-12-03T02:32:10.931Z,0
2022-12-03T02:33:10.560Z,0
2022-12-03T02:34:11.588Z,0
2022-12-03T02:35:12.305Z,0
2022-12-03T02:36:18.172Z,0
2022-12-03T02:37:13.089Z,0
2022-12-03T02:38:14.031Z,0
2022-12-03T02:39:13.937Z,0
2022-12-03T02:40:14.884Z,0
2022-12-03T02:41:14.775Z,0
2022-12-03T02:42:15.699Z,0
2022-12-03T02:43:16.032Z,0
2022-12-03T02:44:17.331Z,0
2022-12-03T02:45:22.096Z,0
2022-12-03T02:46:18.426Z,0
2022-12-03T02:47:19.219Z,0
2022-12-03T02:48:19.108Z,0
2022-12-03T02:49:19.738Z,0
2022-12-03T02:50:20.365Z,0
2022-12-03T02:51:21.559Z,0
2022-12-03T02:52:21.782Z,0
2022-12-03T02:53:22.720Z,0
2022-12-03T02:54:22.990Z,0
2022-12-03T02:55:23.221Z,0
2022-12-03T02:56:23.417Z,0
2022-12-03T02:57:23.010Z,0
2022-12-03T02:58:24.491Z,0
2022-12-03T02:59:24.729Z,0
2022-12-03T03:00:24.646Z,0
2022-12-03T03:01:25.737Z,0
2022-12-03T03:02:26.039Z,0
2022-12-03T03:03:26.245Z,0
2022-12-03T03:04:26.675Z,0
2022-12-03T03:05:28.161Z,0
2022-12-03T03:06:28.067Z,0
2022-12-03T03:07:29.305Z,0
2022-12-03T03:08:29.946Z,0
2022-12-03T03:09:29.855Z,0
2022-12-03T03:10:30.800Z,0
2022-12-03T03:11:31.978Z,0
2022-12-03T03:12:36.152Z,0
2022-12-03T03:13:33.308Z,0
2022-12-03T03:14:33.906Z,0
2022-12-03T03:15:34.101Z,0
2022-12-03T03:16:34.787Z,0
2022-12-03T03:17:34.728Z,0
2022-12-03T03:18:36.215Z,0
2022-12-03T03:19:36.126Z,0
2022-12-03T03:20:37.031Z,0
2022-12-03T03:21:36.643Z,0
2022-12-03T03:22:38.133Z,0
2022-12-03T03:23:38.072Z,0
2022-12-03T03:24:39.062Z,0
2022-12-03T03:25:40.000Z,0
2022-12-03T03:26:40.887Z,0
2022-12-03T03:27:41.515Z,0
2022-12-03T03:28:42.999Z,0
2022-12-03T03:29:43.221Z,0
2022-12-03T03:30:43.568Z,0
2022-12-03T03:31:44.932Z,0
2022-12-03T03:32:44.914Z,0
2022-12-03T03:33:45.517Z,0
2022-12-03T03:34:46.815Z,0
2022-12-03T03:35:46.435Z,0
2022-12-03T03:36:47.641Z,0
2022-12-03T03:37:48.277Z,0
2022-12-03T03:38:49.228Z,0
2022-12-03T03:39:49.709Z,0
2022-12-03T03:40:49.639Z,0
2022-12-03T03:41:50.551Z,0
2022-12-03T03:42:50.906Z,0
2022-12-03T03:43:51.797Z,0
2022-12-03T03:44:53.094Z,0
2022-12-03T03:45:53.982Z,0
2022-12-03T03:46:53.641Z,0
2022-12-03T03:47:54.845Z,0
2022-12-03T03:48:54.772Z,0
2022-12-03T03:49:55.950Z,0
2022-12-03T03:50:55.845Z,0
2022-12-03T03:51:56.471Z,0
2022-12-03T03:52:57.679Z,0
2022-12-03T03:53:57.616Z,0
2022-12-03T03:54:58.770Z,0
2022-12-03T03:55:59.133Z,0
2022-12-03T03:57:00.009Z,0
2022-12-03T03:58:01.219Z,0
2022-12-03T03:59:01.830Z,0
2022-12-03T04:00:03.133Z,0
2022-12-03T04:01:03.801Z,0
2022-12-03T04:02:04.243Z,0
2022-12-03T04:03:04.867Z,0
2022-12-03T04:04:06.698Z,0
2022-12-03T04:05:07.624Z,0
2022-12-03T04:06:07.551Z,0
2022-12-03T04:07:07.481Z,0
2022-12-03T04:08:08.871Z,0
2022-12-03T04:09:08.830Z,0
2022-12-03T04:10:10.035Z,0
2022-12-03T04:11:09.973Z,0
2022-12-03T04:12:10.582Z,0
2022-12-03T04:13:12.064Z,0
2022-12-03T04:14:12.086Z,0
2022-12-03T04:15:12.922Z,0
2022-12-03T04:16:13.507Z,0
2022-12-03T04:17:14.031Z,0
2022-12-03T04:18:14.223Z,0
2022-12-03T04:19:15.137Z,0
2022-12-03T04:20:15.747Z,0
2022-12-03T04:21:16.669Z,0
2022-12-03T04:22:17.576Z,0
2022-12-03T04:23:18.510Z,0
2022-12-03T04:24:19.439Z,0
2022-12-03T04:25:20.303Z,0
2022-12-03T04:26:20.524Z,0
2022-12-03T04:27:20.996Z,0
2022-12-03T04:28:21.186Z,0
2022-12-03T04:29:21.379Z,0
2022-12-03T04:30:22.450Z,0
2022-12-03T04:31:23.021Z,0
2022-12-03T04:32:22.678Z,0
2022-12-03T04:33:23.321Z,0
2022-12-03T04:34:24.255Z,0
2022-12-03T04:35:24.916Z,0
2022-12-03T04:36:25.853Z,0
2022-12-03T04:37:26.482Z,0
2022-12-03T04:38:27.700Z,0
2022-12-03T04:39:27.919Z,0
2022-12-03T04:40:27.829Z,0
2022-12-03T04:41:28.465Z,0
2022-12-03T04:42:29.374Z,0
2022-12-03T04:43:30.962Z,0
2022-12-03T04:44:30.634Z,0
2022-12-03T04:45:31.410Z,0
2022-12-03T04:46:33.081Z,0
2022-12-03T04:47:38.418Z,0
2022-12-03T04:48:33.915Z,0
2022-12-03T04:49:34.097Z,0
2022-12-03T04:50:34.714Z,0
2022-12-03T04:51:35.632Z,0
2022-12-03T04:52:35.540Z,0
2022-12-03T04:53:38.747Z,0
2022-12-03T04:54:37.176Z,0
2022-12-03T04:55:36.891Z,0
2022-12-03T04:56:38.120Z,0
2022-12-03T04:57:38.314Z,0
2022-12-03T04:58:38.239Z,0
2022-12-03T04:59:38.858Z,0
2022-12-03T05:00:40.375Z,0
2022-12-03T05:01:40.860Z,0
2022-12-03T05:02:41.307Z,0
2022-12-03T05:03:41.570Z,0
2022-12-03T05:04:41.190Z,0
2022-12-03T05:05:41.909Z,0
2022-12-03T05:06:42.823Z,0
2022-12-03T05:07:44.179Z,0
2022-12-03T05:08:44.156Z,0
2022-12-03T05:09:45.075Z,0
2022-12-03T05:10:46.277Z,0
2022-12-03T05:11:46.518Z,0
2022-12-03T05:12:46.698Z,0
2022-12-03T05:13:48.703Z,0
2022-12-03T05:14:47.918Z,0
2022-12-03T05:15:48.974Z,0
2022-12-03T05:16:49.165Z,0
2022-12-03T05:17:49.408Z,0
2022-12-03T05:18:49.321Z,0
2022-12-03T05:19:50.221Z,0
2022-12-03T05:20:58.735Z,0
2022-12-03T05:21:51.361Z,0
2022-12-03T05:22:52.273Z,0
2022-12-03T05:23:53.197Z,0
2022-12-03T05:24:54.289Z,0
2022-12-03T05:25:54.079Z,0
2022-12-03T05:26:55.584Z,0
2022-12-03T05:27:54.885Z,0
2022-12-03T05:28:55.492Z,0
2022-12-03T05:29:56.402Z,0
2022-12-03T05:30:57.834Z,0
2022-12-03T05:31:57.787Z,0
2022-12-03T05:32:58.719Z,0
2022-12-03T05:34:00.988Z,0
2022-12-03T05:34:59.804Z,0
2022-12-03T05:35:59.234Z,0
2022-12-03T05:37:00.445Z,0
2022-12-03T05:38:01.375Z,0
2022-12-03T05:39:01.576Z,0
2022-12-03T05:40:02.496Z,0
2022-12-03T05:41:02.401Z,0
2022-12-03T05:42:03.695Z,0
2022-12-03T05:43:03.309Z,0
2022-12-03T05:44:04.612Z,0
2022-12-03T05:45:06.351Z,0
2022-12-03T05:46:06.781Z,0
2022-12-03T05:47:07.279Z,0
2022-12-03T05:48:07.194Z,0
2022-12-03T05:49:08.383Z,0
2022-12-03T05:50:09.309Z,0
2022-12-03T05:51:09.217Z,0
2022-12-03T05:52:15.304Z,0
2022-12-03T05:53:10.224Z,0
2022-12-03T05:54:11.748Z,0
2022-12-03T05:55:12.313Z,0
2022-12-03T05:56:12.036Z,0
2022-12-03T05:57:12.692Z,0
2022-12-03T05:58:13.605Z,0
2022-12-03T05:59:14.813Z,0
2022-12-03T06:00:15.298Z,0
2022-12-03T06:01:15.241Z,0
2022-12-03T06:02:15.490Z,0
2022-12-03T06:03:17.202Z,0
2022-12-03T06:04:16.027Z,0
2022-12-03T06:05:16.945Z,0
2022-12-03T06:06:18.507Z,0
2022-12-03T06:07:25.182Z,0
2022-12-03T06:08:18.811Z,0
2022-12-03T06:09:20.066Z,0
2022-12-03T06:10:20.280Z,0
2022-12-03T06:11:19.916Z,0
2022-12-03T06:12:20.558Z,0
2022-12-03T06:13:21.464Z,0
2022-12-03T06:14:22.092Z,0
2022-12-03T06:15:22.727Z,0
2022-12-03T06:16:24.372Z,0
2022-12-03T06:17:24.019Z,0
2022-12-03T06:18:25.230Z,0
2022-12-03T06:19:25.412Z,0
2022-12-03T06:20:25.604Z,0
2022-12-03T06:21:26.826Z,0
2022-12-03T06:22:27.004Z,0
2022-12-03T06:23:27.179Z,0
2022-12-03T06:24:28.399Z,0
2022-12-03T06:25:28.305Z,0
2022-12-03T06:26:29.321Z,0
2022-12-03T06:27:30.555Z,0
2022-12-03T06:28:30.439Z,0
2022-12-03T06:29:31.927Z,0
2022-12-03T06:30:32.119Z,0
2022-12-03T06:31:33.004Z,0
2022-12-03T06:32:32.968Z,0
2022-12-03T06:33:34.175Z,0
2022-12-03T06:34:34.357Z,0
2022-12-03T06:35:34.239Z,0
2022-12-03T06:36:39.597Z,0
2022-12-03T06:37:35.483Z,0
2022-12-03T06:38:36.667Z,0
2022-12-03T06:39:37.611Z,0
2022-12-03T06:40:38.821Z,0
2022-12-03T06:41:38.708Z,0
2022-12-03T06:42:39.644Z,0
2022-12-03T06:43:41.119Z,0
2022-12-03T06:44:41.528Z,0
2022-12-03T06:45:46.194Z,0
2022-12-03T06:46:43.416Z,0
2022-12-03T06:47:43.362Z,0
2022-12-03T06:48:44.272Z,0
2022-12-03T06:49:44.166Z,0
2022-12-03T06:50:45.066Z,0
2022-12-03T06:51:45.678Z,0
2022-12-03T06:52:47.173Z,0
2022-12-03T06:53:46.789Z,0
2022-12-03T06:54:47.733Z,0
2022-12-03T06:55:47.946Z,0
2022-12-03T06:56:56.939Z,0
2022-12-03T06:57:48.879Z,0
2022-12-03T06:58:50.067Z,0
2022-12-03T06:59:50.272Z,0
2022-12-03T07:00:50.756Z,0
2022-12-03T07:01:51.015Z,0
2022-12-03T07:02:51.835Z,0
2022-12-03T07:03:52.067Z,0
2022-12-03T07:04:57.689Z,0
2022-12-03T07:05:53.458Z,0
2022-12-03T07:06:53.736Z,0
2022-12-03T07:07:54.258Z,0
2022-12-03T07:08:54.469Z,0
2022-12-03T07:09:54.977Z,0
2022-12-03T07:10:54.906Z,0
2022-12-03T07:11:55.227Z,0
2022-12-03T07:12:56.169Z,0
2022-12-03T07:14:01.531Z,0
2022-12-03T07:14:57.925Z,0
2022-12-03T07:15:59.132Z,0
2022-12-03T07:17:00.312Z,0
2022-12-03T07:18:00.500Z,0
2022-12-03T07:19:00.404Z,0
2022-12-03T07:20:01.615Z,0
2022-12-03T07:21:01.982Z,0
2022-12-03T07:22:02.590Z,5.63
2022-12-03T07:23:03.489Z,5.63
2022-12-03T07:24:04.679Z,5.63
2022-12-03T07:25:06.207Z,5.63
2022-12-03T07:26:06.421Z,5.63
2022-12-03T07:27:06.712Z,5.63
2022-12-03T07:28:06.340Z,5.63
2022-12-03T07:29:07.529Z,5.63
2022-12-03T07:30:08.150Z,5.63
2022-12-03T07:31:10.042Z,5.63
2022-12-03T07:32:10.104Z,5.63
2022-12-03T07:33:10.737Z,5.63
2022-12-03T07:34:11.932Z,5.63
2022-12-03T07:35:13.507Z,5.63
2022-12-03T07:36:13.443Z,5.63
2022-12-03T07:37:17.539Z,11.25
2022-12-03T07:38:15.438Z,11.25
2022-12-03T07:39:15.054Z,5.63
2022-12-03T07:40:16.559Z,5.63
2022-12-03T07:41:16.504Z,5.63
2022-12-03T07:42:16.688Z,5.63
2022-12-03T07:43:16.924Z,5.63
2022-12-03T07:44:25.786Z,5.63
2022-12-03T07:45:18.077Z,5.63
2022-12-03T07:46:18.502Z,5.63
2022-12-03T07:47:20.121Z,5.63
2022-12-03T07:48:20.058Z,5.63
2022-12-03T07:49:20.971Z,5.63
2022-12-03T07:50:21.881Z,5.63
2022-12-03T07:51:31.894Z,5.63
2022-12-03T07:52:22.047Z,5.63
2022-12-03T07:53:23.254Z,5.63
2022-12-03T07:54:23.742Z,5.63
2022-12-03T07:55:23.715Z,5.63
2022-12-03T07:56:25.226Z,5.63
2022-12-03T07:57:24.814Z,5.63
2022-12-03T07:58:25.758Z,5.63
2022-12-03T07:59:26.938Z,5.63
2022-12-03T08:00:26.259Z,5.63
2022-12-03T08:01:28.166Z,5.63
2022-12-03T08:02:32.933Z,5.63
2022-12-03T08:03:29.164Z,11.25
2022-12-03T08:04:29.908Z,11.25
2022-12-03T08:05:31.099Z,11.25
2022-12-03T08:06:31.016Z,11.25
2022-12-03T08:07:31.840Z,11.25
2022-12-03T08:08:33.226Z,11.25
2022-12-03T08:09:32.701Z,11.25
2022-12-03T08:10:33.623Z,11.25
2022-12-03T08:11:34.556Z,11.25
2022-12-03T08:12:34.748Z,11.25
2022-12-03T08:13:34.664Z,11.25
2022-12-03T08:14:35.844Z,11.25
2022-12-03T08:15:44.258Z,16.88
2022-12-03T08:16:37.856Z,22.5
2022-12-03T08:17:37.882Z,16.88
2022-12-03T08:18:38.537Z,22.5
2022-12-03T08:19:39.725Z,22.5
2022-12-03T08:20:39.340Z,22.5
2022-12-03T08:21:40.258Z,22.5
2022-12-03T08:22:40.169Z,28.13
2022-12-03T08:23:41.082Z,28.13
2022-12-03T08:24:41.129Z,28.13
2022-12-03T08:25:42.779Z,28.13
2022-12-03T08:26:44.301Z,28.13
2022-12-03T08:27:44.301Z,28.13
2022-12-03T08:28:44.523Z,28.13
2022-12-03T08:29:44.132Z,28.13
2022-12-03T08:30:44.748Z,33.75
2022-12-03T08:31:49.693Z,33.75
2022-12-03T08:32:46.715Z,33.75
2022-12-03T08:33:46.675Z,28.13
2022-12-03T08:34:47.298Z,33.75
2022-12-03T08:35:47.907Z,33.75
2022-12-03T08:36:48.806Z,28.13
2022-12-03T08:37:49.835Z,33.75
2022-12-03T08:38:50.181Z,33.75
2022-12-03T08:39:51.096Z,33.75
2022-12-03T08:40:52.314Z,33.75
2022-12-03T08:41:52.611Z,39.38
2022-12-03T08:42:52.854Z,39.38
2022-12-03T08:43:54.085Z,33.75
2022-12-03T08:44:54.016Z,33.75
2022-12-03T08:45:55.104Z,33.75
2022-12-03T08:46:54.763Z,33.75
2022-12-03T08:47:56.081Z,33.75
2022-12-03T08:49:02.281Z,39.38
2022-12-03T08:49:56.831Z,39.38
2022-12-03T08:50:57.043Z,39.38
2022-12-03T08:51:56.416Z,39.38
2022-12-03T08:52:57.638Z,39.38
2022-12-03T08:54:02.547Z,39.38
2022-12-03T08:54:58.190Z,39.38
2022-12-03T08:55:58.521Z,33.75
2022-12-03T08:56:59.017Z,33.75
2022-12-03T08:57:58.809Z,39.38
2022-12-03T08:58:59.723Z,39.38
2022-12-03T09:00:02.467Z,39.38
2022-12-03T09:01:01.780Z,39.38
2022-12-03T09:02:02.897Z,39.38
2022-12-03T09:03:03.419Z,39.38
2022-12-03T09:04:03.656Z,39.38
2022-12-03T09:05:04.831Z,39.38
2022-12-03T09:06:04.466Z,39.38
2022-12-03T09:07:05.376Z,39.38
2022-12-03T09:08:06.787Z,39.38
2022-12-03T09:09:11.912Z,39.38
2022-12-03T09:10:07.552Z,39.38
2022-12-03T09:11:09.059Z,39.38
2022-12-03T09:12:09.258Z,39.38
2022-12-03T09:13:09.449Z,39.38
2022-12-03T09:14:12.548Z,45
2022-12-03T09:15:09.612Z,39.38
2022-12-03T09:16:10.392Z,39.38
2022-12-03T09:17:11.919Z,39.38
2022-12-03T09:18:11.849Z,39.38
2022-12-03T09:19:12.447Z,39.38
2022-12-03T09:20:13.406Z,39.38
2022-12-03T09:21:14.043Z,45
2022-12-03T09:22:14.958Z,39.38
2022-12-03T09:23:16.441Z,45
2022-12-03T09:24:16.344Z,45
2022-12-03T09:25:16.556Z,39.38
2022-12-03T09:26:17.065Z,45
2022-12-03T09:27:16.991Z,45
2022-12-03T09:28:17.986Z,39.38
2022-12-03T09:29:24.027Z,39.38
2022-12-03T09:30:19.506Z,39.38
2022-12-03T09:31:20.090Z,39.38
2022-12-03T09:32:29.849Z,39.38
2022-12-03T09:33:21.130Z,39.38
2022-12-03T09:34:22.037Z,39.38
2022-12-03T09:35:21.930Z,39.38
2022-12-03T09:36:22.958Z,39.38
2022-12-03T09:37:22.866Z,39.38
2022-12-03T09:38:23.569Z,33.75
2022-12-03T09:39:24.199Z,39.38
2022-12-03T09:40:25.112Z,39.38
2022-12-03T09:41:25.310Z,39.38
2022-12-03T09:42:25.217Z,39.38
2022-12-03T09:43:33.434Z,39.38
2022-12-03T09:44:34.469Z,39.38
2022-12-03T09:45:27.677Z,39.38
2022-12-03T09:46:28.781Z,39.38
2022-12-03T09:47:28.736Z,39.38
2022-12-03T09:48:29.781Z,39.38
2022-12-03T09:49:32.853Z,39.38
2022-12-03T09:50:31.736Z,39.38
2022-12-03T09:51:31.359Z,39.38
2022-12-03T09:52:33.621Z,39.38
2022-12-03T09:53:36.737Z,39.38
2022-12-03T09:54:33.839Z,39.38
2022-12-03T09:55:34.350Z,39.38
2022-12-03T09:56:34.853Z,39.38
2022-12-03T09:57:34.528Z,39.38
2022-12-03T09:58:40.030Z,39.38
2022-12-03T09:59:35.371Z,39.38
2022-12-03T10:00:36.342Z,39.38
2022-12-03T10:01:41.749Z,39.38
2022-12-03T10:02:36.694Z,39.38
2022-12-03T10:03:41.595Z,39.38
2022-12-03T10:04:37.687Z,39.38
2022-12-03T10:05:37.367Z,39.38
2022-12-03T10:06:42.483Z,39.38
2022-12-03T10:07:38.246Z,39.38
2022-12-03T10:08:43.362Z,39.38
2022-12-03T10:09:39.350Z,39.38
2022-12-03T10:10:40.038Z,39.38
2022-12-03T10:11:41.256Z,39.38
2022-12-03T10:12:41.187Z,39.38
2022-12-03T10:13:42.849Z,39.38
2022-12-03T10:14:42.758Z,39.38
2022-12-03T10:15:43.158Z,39.38
2022-12-03T10:16:44.431Z,39.38
2022-12-03T10:17:44.624Z,39.38
2022-12-03T10:18:53.165Z,39.38
2022-12-03T10:19:45.159Z,39.38
2022-12-03T10:20:46.069Z,39.38
2022-12-03T10:21:46.267Z,39.38
2022-12-03T10:22:46.470Z,39.38
2022-12-03T10:23:49.598Z,39.38
2022-12-03T10:24:48.073Z,39.38
2022-12-03T10:25:48.715Z,39.38
2022-12-03T10:26:49.647Z,39.38
2022-12-03T10:27:50.877Z,39.38
2022-12-03T10:28:51.147Z,39.38
2022-12-03T10:29:51.976Z,39.38
2022-12-03T10:30:52.671Z,39.38
2022-12-03T10:31:52.663Z,39.38
2022-12-03T10:32:53.281Z,33.75
2022-12-03T10:33:54.215Z,33.75
2022-12-03T10:34:54.594Z,33.75
2022-12-03T10:35:54.873Z,28.13
2022-12-03T10:36:55.166Z,22.5
2022-12-03T10:37:55.374Z,22.5
2022-12-03T10:38:56.666Z,16.88
2022-12-03T10:40:01.172Z,16.88
2022-12-03T10:40:56.781Z,16.88
2022-12-03T10:41:58.060Z,16.88
2022-12-03T10:42:58.274Z,16.88
2022-12-03T10:43:59.176Z,16.88
2022-12-03T10:44:59.936Z,16.88
2022-12-03T10:46:08.807Z,16.88
2022-12-03T10:47:01.192Z,16.88
2022-12-03T10:48:01.251Z,16.88
2022-12-03T10:49:01.997Z,16.88
2022-12-03T10:50:02.942Z,16.88
2022-12-03T10:51:03.438Z,16.88
2022-12-03T10:52:03.648Z,16.88
2022-12-03T10:53:03.841Z,16.88
2022-12-03T10:54:04.461Z,16.88
2022-12-03T10:55:06.125Z,16.88
2022-12-03T10:56:06.327Z,16.88
2022-12-03T10:57:06.552Z,16.88
2022-12-03T10:58:07.049Z,16.88
2022-12-03T10:59:07.339Z,16.88
2022-12-03T11:00:07.263Z,16.88
2022-12-03T11:01:09.013Z,16.88
2022-12-03T11:02:09.772Z,16.88
2022-12-03T11:03:13.917Z,16.88
2022-12-03T11:04:10.323Z,16.88
2022-12-03T11:05:10.976Z,16.88
2022-12-03T11:06:11.172Z,22.5
2022-12-03T11:07:11.077Z,22.5
2022-12-03T11:08:12.673Z,22.5
2022-12-03T11:09:20.547Z,22.5
2022-12-03T11:10:13.170Z,22.5
2022-12-03T11:11:14.381Z,22.5
2022-12-03T11:12:14.005Z,22.5
2022-12-03T11:13:15.234Z,22.5
2022-12-03T11:14:21.331Z,22.5
2022-12-03T11:15:16.098Z,22.5
2022-12-03T11:16:17.201Z,22.5
2022-12-03T11:17:17.498Z,22.5
2022-12-03T11:18:17.411Z,22.5
2022-12-03T11:19:19.004Z,22.5
2022-12-03T11:20:26.119Z,22.5
2022-12-03T11:21:19.028Z,22.5
2022-12-03T11:22:20.513Z,22.5
2022-12-03T11:23:20.702Z,22.5
2022-12-03T11:24:20.321Z,16.88
2022-12-03T11:25:21.528Z,16.88
2022-12-03T11:26:30.852Z,16.88
2022-12-03T11:27:22.526Z,16.88
2022-12-03T11:28:24.043Z,16.88
2022-12-03T11:29:24.040Z,16.88
2022-12-03T11:30:24.225Z,16.88
2022-12-03T11:31:24.405Z,16.88
2022-12-03T11:32:28.039Z,16.88
2022-12-03T11:33:25.257Z,16.88
2022-12-03T11:34:24.961Z,16.88
2022-12-03T11:35:25.885Z,16.88
2022-12-03T11:37:01.000Z,16.88
2022-12-03T11:37:27.877Z,16.88
2022-12-03T11:38:28.071Z,16.88
2022-12-03T11:39:28.074Z,16.88
2022-12-03T11:40:31.457Z,16.88
2022-12-03T11:41:29.038Z,16.88
2022-12-03T11:42:30.260Z,16.88
2022-12-03T11:43:30.207Z,16.88
2022-12-03T11:44:30.551Z,16.88
2022-12-03T11:45:31.465Z,16.88
2022-12-03T11:46:31.964Z,16.88
2022-12-03T11:47:31.547Z,16.88
2022-12-03T11:48:32.175Z,16.88
2022-12-03T11:49:33.196Z,16.88
2022-12-03T11:50:39.284Z,16.88
2022-12-03T11:51:33.310Z,16.88
2022-12-03T11:52:34.205Z,16.88
2022-12-03T11:53:34.582Z,16.88
2022-12-03T11:54:35.503Z,16.88
2022-12-03T11:55:36.431Z,16.88
2022-12-03T11:56:36.326Z,16.88
2022-12-03T11:57:37.546Z,16.88
2022-12-03T11:58:38.046Z,16.88
2022-12-03T11:59:37.786Z,16.88
2022-12-03T12:00:38.708Z,16.88
2022-12-03T12:01:44.196Z,16.88
2022-12-03T12:02:40.241Z,16.88
2022-12-03T12:03:44.437Z,16.88
2022-12-03T12:04:41.341Z,16.88
2022-12-03T12:05:41.020Z,16.88
2022-12-03T12:06:42.526Z,16.88
2022-12-03T12:07:42.642Z,16.88
2022-12-03T12:08:42.859Z,16.88
2022-12-03T12:09:43.855Z,16.88
2022-12-03T12:10:44.801Z,11.25
2022-12-03T12:11:44.414Z,11.25
2022-12-03T12:12:53.364Z,11.25
2022-12-03T12:13:46.619Z,11.25
2022-12-03T12:14:47.239Z,11.25
2022-12-03T12:15:48.244Z,11.25
2022-12-03T12:16:50.241Z,16.88
2022-12-03T12:17:49.584Z,16.88
2022-12-03T12:18:53.800Z,16.88
2022-12-03T12:19:54.603Z,16.88
2022-12-03T12:20:50.603Z,16.88
2022-12-03T12:21:51.319Z,16.88
2022-12-03T12:22:52.512Z,16.88
2022-12-03T12:23:52.127Z,16.88
2022-12-03T12:24:53.337Z,16.88
2022-12-03T12:25:59.430Z,16.88
2022-12-03T12:26:53.341Z,16.88
2022-12-03T12:27:54.263Z,16.88
2022-12-03T12:28:55.206Z,16.88
2022-12-03T12:29:56.243Z,16.88
2022-12-03T12:30:56.813Z,16.88
2022-12-03T12:32:05.071Z,16.88
2022-12-03T12:32:57.332Z,16.88
2022-12-03T12:33:57.246Z,16.88
2022-12-03T12:34:58.757Z,16.88
2022-12-03T12:35:58.962Z,16.88
2022-12-03T12:36:58.873Z,16.88
2022-12-03T12:38:11.209Z,16.88
2022-12-03T12:38:59.837Z,16.88
2022-12-03T12:40:01.414Z,16.88
2022-12-03T12:41:01.060Z,16.88
2022-12-03T12:42:01.976Z,16.88
2022-12-03T12:43:08.401Z,16.88
2022-12-03T12:44:03.998Z,16.88
2022-12-03T12:45:03.912Z,11.25
2022-12-03T12:46:19.004Z,11.25
2022-12-03T12:47:06.226Z,11.25
2022-12-03T12:48:06.776Z,11.25
2022-12-03T12:49:11.226Z,11.25
2022-12-03T12:50:09.494Z,11.25
2022-12-03T12:51:07.431Z,11.25
2022-12-03T12:52:08.070Z,11.25
2022-12-03T12:53:08.117Z,11.25
2022-12-03T12:54:09.598Z,11.25
2022-12-03T12:55:16.053Z,11.25
2022-12-03T12:56:10.248Z,11.25
2022-12-03T12:57:11.161Z,11.25
2022-12-03T12:58:11.359Z,11.25
2022-12-03T12:59:12.077Z,11.25
2022-12-03T13:00:13.070Z,11.25
2022-12-03T13:01:14.864Z,11.25
2022-12-03T13:02:21.260Z,11.25
2022-12-03T13:03:14.764Z,11.25
2022-12-03T13:04:15.944Z,11.25
2022-12-03T13:05:16.869Z,11.25
2022-12-03T13:06:17.090Z,11.25
2022-12-03T13:07:18.022Z,11.25
2022-12-03T13:08:23.886Z,11.25
2022-12-03T13:09:17.975Z,11.25
2022-12-03T13:10:18.704Z,11.25
2022-12-03T13:11:19.022Z,11.25
2022-12-03T13:12:20.227Z,11.25
2022-12-03T13:13:20.460Z,11.25
2022-12-03T13:14:20.371Z,11.25
2022-12-03T13:15:21.589Z,11.25
2022-12-03T13:16:21.273Z,11.25
2022-12-03T13:17:22.528Z,11.25
2022-12-03T13:18:22.166Z,11.25
2022-12-03T13:19:23.646Z,11.25
2022-12-03T13:20:26.373Z,11.25
2022-12-03T13:21:25.005Z,11.25
2022-12-03T13:22:25.683Z,11.25
2022-12-03T13:23:26.321Z,11.25
2022-12-03T13:24:26.956Z,11.25
2022-12-03T13:26:37.982Z,11.25
2022-12-03T13:28:31.081Z,11.25
2022-12-03T13:29:32.395Z,11.25
2022-12-03T13:30:32.306Z,11.25
2022-12-03T13:31:33.674Z,11.25
2022-12-03T13:32:33.930Z,11.25
2022-12-03T13:33:34.447Z,11.25
2022-12-03T13:34:34.057Z,16.88
2022-12-03T13:35:34.707Z,16.88
2022-12-03T13:36:35.642Z,16.88
2022-12-03T13:37:35.247Z,16.88
2022-12-03T13:38:36.236Z,16.88
2022-12-03T13:39:36.966Z,16.88
2022-12-03T13:40:38.172Z,16.88
2022-12-03T13:41:38.692Z,11.25
2022-12-03T13:42:38.703Z,11.25
2022-12-03T13:43:44.254Z,11.25
2022-12-03T13:44:39.245Z,11.25
2022-12-03T13:45:40.760Z,11.25
2022-12-03T13:46:41.307Z,11.25
2022-12-03T13:47:41.210Z,11.25
2022-12-03T13:48:41.324Z,11.25
2022-12-03T13:49:42.017Z,11.25
2022-12-03T13:50:43.513Z,16.88
2022-12-03T13:51:44.035Z,16.88
2022-12-03T13:52:43.653Z,16.88
2022-12-03T13:53:45.326Z,16.88
2022-12-03T13:54:45.538Z,16.88
2022-12-03T13:55:46.460Z,16.88
2022-12-03T13:56:47.108Z,16.88
2022-12-03T13:57:48.296Z,16.88
2022-12-03T13:58:49.518Z,16.88
2022-12-03T13:59:49.542Z,16.88
2022-12-03T14:00:49.426Z,16.88
2022-12-03T14:01:51.533Z,16.88